Time;durP1;ratioP1;P1;durP2;ratioP2;P2;SDS_P1;SDS_P2;PMS_P1;PMS_P2;Temp;Humidity;BMP_temperature;BMP_pressure;BME280_temperature;BME280_humidity;BME280_pressure;Samples;Min_cycle;Max_cycle;Signal;HPM_P1;HPM_P2
2023/10/28 00:00:17;;;;;;;8.63;8.23;;;;;;;18.59;72.60;91876.50;5069908;28;20222;-80
2023/10/28 00:02:43;;;;;;;9.70;8.83;;;;;;;18.58;73.48;91863.63;5071777;28;20189;-80
2023/10/28 00:05:09;;;;;;;9.17;8.67;;;;;;;18.56;73.28;91874.56;5069522;28;20952;-81
2023/10/28 00:07:35;;;;;;;9.23;8.47;;;;;;;18.62;72.98;91872.41;5070186;28;20190;-81
2023/10/28 00:10:02;;;;;;;8.97;8.50;;;;;;;18.52;73.21;91875.59;5070265;28;20230;-81
2023/10/28 00:12:28;;;;;;;8.97;8.20;;;;;;;18.63;72.04;91895.09;5069652;28;20186;-81
2023/10/28 00:14:53;;;;;;;8.93;8.33;;;;;;;18.53;73.13;91895.63;5067811;28;20237;-83
2023/10/28 00:17:19;;;;;;;8.60;8.10;;;;;;;18.56;72.13;91884.34;5071023;28;20273;-82
2023/10/28 00:19:44;;;;;;;9.03;8.33;;;;;;;18.84;70.10;91885.75;5069767;28;20273;-81
2023/10/28 00:22:12;;;;;;;8.17;7.60;;;;;;;18.81;70.46;91888.31;5058047;28;20188;-83
2023/10/28 00:24:38;;;;;;;8.33;7.93;;;;;;;18.86;70.21;91882.75;5064892;28;20182;-81
2023/10/28 00:27:03;;;;;;;8.40;7.80;;;;;;;18.63;71.55;91858.09;5062475;28;20246;-81
2023/10/28 00:29:29;;;;;;;9.00;8.40;;;;;;;18.74;70.74;91869.66;5069122;28;20179;-78
2023/10/28 00:31:54;;;;;;;8.77;8.17;;;;;;;18.84;70.53;91871.75;5068270;28;20185;-82
2023/10/28 00:34:20;;;;;;;7.47;7.17;;;;;;;18.90;68.73;91867.72;5069159;28;20233;-81
2023/10/28 00:36:45;;;;;;;9.20;8.27;;;;;;;18.80;68.51;91855.06;5069212;28;20287;-81
2023/10/28 00:39:11;;;;;;;9.07;8.37;;;;;;;18.95;68.04;91896.53;5071017;28;20194;-83
2023/10/28 00:41:37;;;;;;;8.47;7.97;;;;;;;19.32;65.29;91895.06;5051653;28;20211;-84
2023/10/28 00:44:03;;;;;;;8.10;7.70;;;;;;;19.37;65.30;91886.84;5052555;28;20190;-82
2023/10/28 00:46:28;;;;;;;8.67;7.97;;;;;;;19.21;67.18;91882.72;5040810;28;20224;-80
2023/10/28 00:48:55;;;;;;;11.87;8.70;;;;;;;18.92;69.62;91876.09;5059750;28;20186;-81
2023/10/28 00:51:21;;;;;;;8.90;8.37;;;;;;;18.72;72.12;91890.38;5067610;28;20222;-81
2023/10/28 00:53:46;;;;;;;9.43;8.67;;;;;;;18.73;72.05;91889.28;5068289;28;20955;-81
2023/10/28 00:56:12;;;;;;;9.67;8.70;;;;;;;18.45;74.41;91899.22;5067705;28;20217;-81
2023/10/28 00:58:39;;;;;;;9.00;8.50;;;;;;;18.44;74.22;91895.81;5065700;28;20195;-81
2023/10/28 01:01:06;;;;;;;9.00;8.43;;;;;;;18.42;74.36;91889.34;5068821;28;20215;-81
2023/10/28 01:03:31;;;;;;;9.87;9.17;;;;;;;18.21;76.08;91892.22;5057785;28;20208;-81
2023/10/28 01:05:57;;;;;;;9.57;8.87;;;;;;;18.19;74.95;91886.53;5068761;28;20227;-81
2023/10/28 01:08:23;;;;;;;8.77;8.27;;;;;;;18.29;73.39;91886.00;5068687;28;20191;-82
2023/10/28 01:10:48;;;;;;;8.53;7.93;;;;;;;18.44;72.39;91908.25;5068656;28;20241;-81
2023/10/28 01:13:13;;;;;;;8.80;8.13;;;;;;;18.58;71.78;91905.94;5068632;28;20193;-81
2023/10/28 01:15:39;;;;;;;8.43;7.97;;;;;;;18.46;73.07;91898.88;5068794;28;20245;-81
2023/10/28 01:18:05;;;;;;;9.13;8.50;;;;;;;18.38;72.54;91904.34;5069505;28;20190;-82
2023/10/28 01:20:31;;;;;;;8.03;7.63;;;;;;;18.62;70.56;91904.13;5055893;28;20280;-82
2023/10/28 01:22:58;;;;;;;8.93;8.20;;;;;;;18.50;71.97;91889.16;5069232;28;20947;-82
2023/10/28 01:25:25;;;;;;;8.30;7.73;;;;;;;18.54;70.88;91903.22;5067020;28;20237;-83
2023/10/28 01:27:50;;;;;;;8.53;8.03;;;;;;;18.68;70.46;91919.38;5072388;28;20278;-82
2023/10/28 01:30:16;;;;;;;8.23;7.73;;;;;;;18.75;69.12;91900.28;5064038;28;20230;-81
2023/10/28 01:32:42;;;;;;;8.40;7.77;;;;;;;18.49;72.52;91921.22;5062433;28;20173;-82
2023/10/28 01:35:12;;;;;;;9.03;8.63;;;;;;;18.46;71.38;91903.41;5068257;28;20243;-83
2023/10/28 01:37:38;;;;;;;9.20;8.43;;;;;;;18.22;73.40;91898.28;5069017;28;20175;-82
2023/10/28 01:40:13;;;;;;;8.93;8.30;;;;;;;18.03;74.18;91904.25;5068960;28;20218;-81
2023/10/28 01:42:44;;;;;;;9.50;8.77;;;;;;;18.03;74.04;91891.03;5072605;28;20206;-80
2023/10/28 01:45:10;;;;;;;8.30;7.90;;;;;;;18.23;71.09;91889.22;5064150;28;20230;-82
2023/10/28 01:47:37;;;;;;;8.57;8.13;;;;;;;18.36;71.21;91899.38;5072845;28;20256;-83
2023/10/28 01:50:05;;;;;;;8.20;7.80;;;;;;;18.55;69.79;91901.34;5072631;28;20244;-82
2023/10/28 01:52:30;;;;;;;8.73;8.20;;;;;;;18.65;69.33;91903.44;5072728;28;20185;-82
2023/10/28 01:54:55;;;;;;;8.50;7.90;;;;;;;18.75;68.88;91902.91;5072302;28;20227;-80
2023/10/28 01:57:21;;;;;;;8.47;7.97;;;;;;;18.72;68.09;91908.91;5072425;28;20192;-81
2023/10/28 01:59:46;;;;;;;8.23;7.73;;;;;;;18.65;68.88;91888.34;5070548;28;22388;-82
2023/10/28 02:02:11;;;;;;;8.67;8.27;;;;;;;18.74;68.07;91910.06;5072637;28;20182;-81
2023/10/28 02:04:37;;;;;;;8.57;8.07;;;;;;;18.72;68.30;91893.78;5075703;28;20191;-82
2023/10/28 02:07:04;;;;;;;8.50;7.97;;;;;;;18.52;68.84;91889.56;5072240;28;20190;-82
2023/10/28 02:09:33;;;;;;;8.77;8.00;;;;;;;18.60;67.37;91904.47;5072261;28;20212;-82
2023/10/28 02:12:02;;;;;;;9.00;8.27;;;;;;;19.15;64.60;91903.38;5073521;28;20178;-82
2023/10/28 02:14:28;;;;;;;8.70;7.63;;;;;;;19.11;63.86;91910.50;5071822;28;20217;-74
2023/10/28 02:16:55;;;;;;;7.83;7.30;;;;;;;19.01;65.19;91916.31;5070874;28;20203;-81
2023/10/28 02:19:21;;;;;;;8.83;8.23;;;;;;;19.05;65.26;91922.47;5072037;28;20187;-82
2023/10/28 02:21:49;;;;;;;8.70;8.13;;;;;;;18.91;65.93;91909.69;5071163;28;20249;-84
2023/10/28 02:24:16;;;;;;;8.60;8.10;;;;;;;19.02;64.15;91917.84;5071912;28;20427;-83
2023/10/28 02:26:43;;;;;;;9.60;7.67;;;;;;;19.02;64.11;91918.63;5055603;28;20230;-81
2023/10/28 02:29:08;;;;;;;8.27;7.70;;;;;;;18.97;64.64;91915.50;5054465;28;20192;-83
2023/10/28 02:31:34;;;;;;;8.57;7.73;;;;;;;18.93;65.47;91930.50;5066052;28;20246;-82
2023/10/28 02:34:00;;;;;;;9.40;8.70;;;;;;;18.95;64.76;91909.78;5070898;28;20234;-81
2023/10/28 02:36:26;;;;;;;8.50;8.00;;;;;;;19.00;64.82;91925.38;5071316;28;20247;-83
2023/10/28 02:38:51;;;;;;;8.27;7.67;;;;;;;18.92;64.25;91918.41;5071700;28;20187;-83
2023/10/28 02:41:16;;;;;;;9.00;8.33;;;;;;;19.00;64.29;91930.69;5071442;28;20218;-81
2023/10/28 02:43:42;;;;;;;8.93;8.00;;;;;;;18.90;65.21;91931.19;5070494;28;20192;-81
2023/10/28 02:46:07;;;;;;;8.37;7.97;;;;;;;18.71;65.98;91917.94;5071370;28;20215;-81
2023/10/28 02:48:34;;;;;;;8.50;7.87;;;;;;;18.62;66.82;91912.06;5071791;28;20251;-85
2023/10/28 02:51:06;;;;;;;8.88;8.18;;;;;;;18.51;68.02;91926.91;5064568;28;20516;-87
2023/10/28 02:53:33;;;;;;;8.83;8.23;;;;;;;18.47;66.79;91920.78;5067216;28;20195;-85
2023/10/28 02:56:03;;;;;;;9.73;9.17;;;;;;;18.19;68.21;91891.03;5063902;28;20242;-82
2023/10/28 02:58:28;;;;;;;8.90;8.47;;;;;;;18.19;70.01;91902.38;5052905;28;20194;-83
2023/10/28 03:00:56;;;;;;;9.90;9.40;;;;;;;18.19;71.31;91917.44;5064398;28;20239;-82
2023/10/28 03:03:22;;;;;;;9.10;8.30;;;;;;;18.08;71.21;91921.72;5086822;28;20189;-84
2023/10/28 03:05:49;;;;;;;8.37;7.97;;;;;;;18.06;71.07;91918.63;5070863;28;20225;-83
2023/10/28 03:08:15;;;;;;;8.67;7.97;;;;;;;17.85;72.35;91904.91;5070859;28;20241;-82
2023/10/28 03:10:40;;;;;;;9.37;8.37;;;;;;;17.92;71.87;91913.00;5070792;28;20226;-83
2023/10/28 03:13:06;;;;;;;9.23;8.50;;;;;;;17.82;71.83;91902.94;5071154;28;20179;-83
2023/10/28 03:15:32;;;;;;;9.53;9.03;;;;;;;17.84;71.66;91906.03;5068168;28;20242;-83
2023/10/28 03:17:58;;;;;;;9.20;8.67;;;;;;;17.80;72.17;91915.72;5061385;28;20199;-83
2023/10/28 03:20:23;;;;;;;9.00;8.30;;;;;;;18.01;71.56;91927.56;5070909;28;20230;-84
2023/10/28 03:22:50;;;;;;;9.50;8.73;;;;;;;17.87;72.15;91918.56;5070564;28;20197;-83
2023/10/28 03:25:16;;;;;;;9.70;9.07;;;;;;;17.92;71.66;91924.34;5071037;28;20222;-81
2023/10/28 03:27:42;;;;;;;9.30;8.80;;;;;;;17.93;72.54;91919.84;5069991;28;20183;-85
2023/10/28 03:30:08;;;;;;;9.07;8.07;;;;;;;18.07;71.24;91922.81;5070699;28;20237;-81
2023/10/28 03:32:33;;;;;;;9.43;8.73;;;;;;;18.11;71.14;91939.53;5069783;28;20175;-82
2023/10/28 03:34:58;;;;;;;9.57;8.77;;;;;;;18.02;71.73;91949.47;5065449;28;20230;-82
2023/10/28 03:37:24;;;;;;;9.50;8.80;;;;;;;17.92;71.96;91934.91;5070899;28;20238;-83
2023/10/28 03:39:49;;;;;;;8.70;8.10;;;;;;;18.17;70.00;91940.78;5070083;28;20284;-84
2023/10/28 03:42:15;;;;;;;8.90;8.37;;;;;;;18.04;70.81;91942.00;5066811;28;20407;-84
2023/10/28 03:44:41;;;;;;;11.43;9.57;;;;;;;18.12;71.26;91951.59;5070254;28;20198;-82
2023/10/28 03:47:07;;;;;;;9.63;8.93;;;;;;;17.86;71.78;91952.09;5069228;28;20194;-83
2023/10/28 03:49:33;;;;;;;9.63;9.00;;;;;;;17.80;74.45;91953.47;5070283;28;20208;-82
2023/10/28 03:51:59;;;;;;;9.90;9.13;;;;;;;17.50;76.85;91971.53;5070970;28;20216;-84
2023/10/28 03:54:24;;;;;;;10.60;9.40;;;;;;;16.92;82.11;91969.44;5057093;28;20248;-83
2023/10/28 03:56:50;;;;;;;9.53;8.73;;;;;;;16.78;84.09;91944.53;5060964;28;20218;-83
2023/10/28 03:59:15;;;;;;;10.47;9.40;;;;;;;16.81;84.57;91965.72;5055486;28;20197;-84
2023/10/28 04:01:41;;;;;;;10.40;9.50;;;;;;;16.53;86.42;91964.84;5069718;28;20221;-84
2023/10/28 04:04:07;;;;;;;10.27;9.50;;;;;;;16.45;87.05;91963.09;5088340;28;20182;-83
2023/10/28 04:06:32;;;;;;;11.13;10.13;;;;;;;16.38;87.60;91962.84;5080074;28;20212;-84
2023/10/28 04:08:59;;;;;;;10.50;9.70;;;;;;;16.56;87.21;91969.47;5070302;28;20185;-83
2023/10/28 04:11:24;;;;;;;11.40;10.30;;;;;;;16.21;89.08;91968.31;5067025;28;20241;-81
2023/10/28 04:13:50;;;;;;;12.23;9.50;;;;;;;16.15;90.10;91980.19;5057519;28;20209;-82
2023/10/28 04:16:15;;;;;;;11.03;9.97;;;;;;;16.18;89.72;91974.25;5061031;28;20225;-82
2023/10/28 04:18:40;;;;;;;11.37;10.33;;;;;;;16.00;90.12;91944.69;5069853;28;20190;-83
2023/10/28 04:21:06;;;;;;;10.77;9.87;;;;;;;16.12;90.16;91978.19;5066706;28;20233;-84
2023/10/28 04:23:31;;;;;;;10.63;9.83;;;;;;;16.02;90.64;91966.22;5062038;28;20190;-82
2023/10/28 04:25:57;;;;;;;10.37;9.63;;;;;;;16.08;90.28;91966.75;5061873;28;20236;-87
2023/10/28 04:28:23;;;;;;;10.40;9.77;;;;;;;15.94;90.47;91956.53;5063514;28;20174;-83
2023/10/28 04:30:58;;;;;;;11.70;10.70;;;;;;;16.02;87.17;91952.28;5062041;28;20284;-82
2023/10/28 04:33:25;;;;;;;10.10;9.17;;;;;;;16.38;82.70;91965.47;5068667;28;20200;-84
2023/10/28 04:35:53;;;;;;;12.30;9.47;;;;;;;16.44;81.36;91958.94;5068138;28;20231;-81
2023/10/28 04:38:20;;;;;;;9.43;8.60;;;;;;;16.50;80.02;91970.78;5065360;28;20202;-77
2023/10/28 04:40:47;;;;;;;9.50;9.10;;;;;;;17.37;75.06;91992.97;5068056;28;20256;-79
2023/10/28 04:43:12;;;;;;;10.93;9.30;;;;;;;17.63;73.15;91984.66;5065499;28;20188;-78
2023/10/28 04:45:42;;;;;;;9.53;8.83;;;;;;;17.45;75.11;91992.09;5068057;28;20233;-81
2023/10/28 04:48:13;;;;;;;9.47;8.87;;;;;;;17.30;76.82;91998.81;5067315;28;20181;-82
2023/10/28 04:50:39;;;;;;;12.33;9.50;;;;;;;17.02;78.55;91987.44;5068838;28;20237;-80
2023/10/28 04:53:04;;;;;;;9.47;8.53;;;;;;;17.07;78.72;91995.13;5061926;28;20193;-79
2023/10/28 04:55:30;;;;;;;10.07;9.37;;;;;;;16.88;80.34;91988.88;5067136;28;20232;-82
2023/10/28 04:57:55;;;;;;;9.80;8.87;;;;;;;16.66;80.35;91998.03;5063561;28;20206;-79
2023/10/28 05:00:20;;;;;;;9.87;8.93;;;;;;;16.67;80.56;91990.88;5055245;28;20229;-80
2023/10/28 05:02:46;;;;;;;9.60;8.83;;;;;;;17.33;74.21;92000.00;5061203;28;20200;-82
2023/10/28 05:05:14;;;;;;;10.27;8.67;;;;;;;17.26;77.83;92007.75;5067782;28;20224;-84
2023/10/28 05:07:39;;;;;;;9.90;9.23;;;;;;;17.23;78.51;92006.53;5067827;28;20184;-86
2023/10/28 05:10:05;;;;;;;9.33;8.50;;;;;;;17.01;79.76;92009.63;5066408;28;20229;-82
2023/10/28 05:12:32;;;;;;;10.37;9.23;;;;;;;16.56;82.99;91990.53;5070796;28;20189;-80
2023/10/28 05:14:59;;;;;;;11.17;10.33;;;;;;;16.66;83.07;92016.47;5068381;28;20228;-79
2023/10/28 05:17:25;;;;;;;10.10;9.40;;;;;;;16.54;83.34;92002.53;5067819;28;20828;-79
2023/10/28 05:19:51;;;;;;;10.03;9.43;;;;;;;16.49;84.56;92037.75;5071669;28;20232;-85
2023/10/28 05:22:18;;;;;;;10.40;9.67;;;;;;;16.30;87.62;92026.94;5061154;28;20198;-84
2023/10/28 05:24:44;;;;;;;8.87;8.23;;;;;;;16.44;87.02;92040.59;5063155;28;20219;-84
2023/10/28 05:27:10;;;;;;;9.70;9.07;;;;;;;16.57;86.99;92039.53;5067728;28;20194;-82
2023/10/28 05:29:36;;;;;;;9.50;8.77;;;;;;;16.51;88.16;92032.16;5070529;28;20189;-79
2023/10/28 05:32:01;;;;;;;10.23;9.27;;;;;;;16.53;87.84;92017.56;5066777;28;20185;-78
2023/10/28 05:34:27;;;;;;;10.40;9.60;;;;;;;16.31;88.32;92023.19;5070547;28;20233;-78
2023/10/28 05:36:52;;;;;;;10.53;9.77;;;;;;;16.27;88.39;92030.22;5051831;28;20214;-81
2023/10/28 05:39:20;;;;;;;10.83;10.03;;;;;;;16.46;87.49;92059.50;5048604;28;20937;-83
2023/10/28 05:41:47;;;;;;;11.03;10.10;;;;;;;16.27;88.51;92053.94;5069412;28;20323;-83
2023/10/28 05:44:13;;;;;;;10.33;9.33;;;;;;;16.37;88.27;92048.25;5064087;28;20221;-83
2023/10/28 05:46:38;;;;;;;14.17;9.60;;;;;;;16.34;88.87;92048.91;5066338;28;20206;-85
2023/10/28 05:49:03;;;;;;;9.67;8.83;;;;;;;16.35;88.92;92053.09;5070842;28;21015;-84
2023/10/28 05:51:29;;;;;;;10.83;9.90;;;;;;;16.32;89.37;92059.00;5071021;28;20224;-81
2023/10/28 05:53:54;;;;;;;11.63;9.67;;;;;;;16.31;89.86;92067.22;5071280;28;20201;-81
2023/10/28 05:56:20;;;;;;;13.30;11.00;;;;;;;16.05;90.76;92059.56;5071729;28;20872;-80
2023/10/28 05:58:45;;;;;;;19.00;11.80;;;;;;;16.23;90.29;92076.75;5069347;28;20190;-81
2023/10/28 06:01:13;;;;;;;11.27;10.37;;;;;;;16.64;88.11;92073.25;5069810;28;20217;-81
2023/10/28 06:03:38;;;;;;;17.00;11.27;;;;;;;16.68;88.39;92090.72;5067127;28;20201;-82
2023/10/28 06:06:05;;;;;;;12.77;11.33;;;;;;;16.68;88.50;92096.00;5087223;28;20213;-82
2023/10/28 06:08:31;;;;;;;9.83;9.00;;;;;;;16.83;87.85;92102.47;5067419;28;20178;-82
2023/10/28 06:10:56;;;;;;;23.93;12.97;;;;;;;16.67;89.11;92091.78;5071613;28;20221;-83
2023/10/28 06:13:22;;;;;;;10.90;10.03;;;;;;;16.49;90.72;92101.00;5059560;28;20188;-80
2023/10/28 06:15:48;;;;;;;14.53;12.00;;;;;;;16.40;91.39;92097.66;5071919;28;20251;-82
2023/10/28 06:18:13;;;;;;;39.70;21.13;;;;;;;16.61;91.05;92108.16;5071523;28;20209;-81
2023/10/28 06:20:39;;;;;;;40.03;19.13;;;;;;;16.47;91.24;92111.09;5087231;28;20233;-84
2023/10/28 06:23:06;;;;;;;31.27;19.97;;;;;;;16.56;91.26;92100.47;5071642;28;20181;-80
2023/10/28 06:25:34;;;;;;;35.33;19.97;;;;;;;16.83;90.82;92111.16;5070603;28;20217;-80
2023/10/28 06:28:00;;;;;;;29.87;16.60;;;;;;;17.00;89.23;92128.63;5070868;28;20192;-78
2023/10/28 06:30:25;;;;;;;26.37;14.23;;;;;;;17.03;89.19;92126.13;5069731;28;20468;-80
2023/10/28 06:32:51;;;;;;;20.90;13.47;;;;;;;17.10;89.20;92121.06;5071360;28;20284;-81
2023/10/28 06:35:16;;;;;;;22.30;12.97;;;;;;;17.01;89.99;92130.94;5066067;28;20267;-87
2023/10/28 06:37:42;;;;;;;15.87;11.07;;;;;;;16.88;90.65;92136.53;5071958;28;20193;-93
2023/10/28 06:40:10;;;;;;;12.57;11.40;;;;;;;17.04;89.87;92140.84;5071747;28;20267;-85
2023/10/28 06:42:39;;;;;;;10.57;9.50;;;;;;;17.19;88.02;92145.47;5071493;28;20207;-82
2023/10/28 06:45:09;;;;;;;13.90;9.73;;;;;;;17.07;88.43;92149.97;5065647;28;20210;-84
2023/10/28 06:47:34;;;;;;;10.93;9.83;;;;;;;17.19;88.67;92160.53;5070123;28;20197;-83
2023/10/28 06:50:04;;;;;;;15.37;10.20;;;;;;;16.68;92.33;92164.53;5085389;28;20226;-82
2023/10/28 06:52:30;;;;;;;13.23;10.03;;;;;;;16.69;91.89;92152.88;5068407;28;20190;-80
2023/10/28 06:54:59;;;;;;;12.00;10.80;;;;;;;17.00;90.52;92174.25;5070435;28;20255;-77
2023/10/28 06:57:24;;;;;;;12.90;10.17;;;;;;;17.45;87.74;92172.31;5070422;28;20186;-80
2023/10/28 06:59:49;;;;;;;10.40;9.50;;;;;;;17.49;87.05;92169.81;5059382;28;20226;-75
2023/10/28 07:02:15;;;;;;;11.33;9.60;;;;;;;17.10;89.36;92192.28;5044454;28;20193;-77
2023/10/28 07:04:41;;;;;;;12.27;9.93;;;;;;;17.30;88.36;92183.53;5048299;28;20210;-77
2023/10/28 07:07:08;;;;;;;10.50;9.50;;;;;;;17.50;86.63;92182.66;5050176;28;20212;-77
2023/10/28 07:09:35;;;;;;;9.77;8.87;;;;;;;17.71;84.30;92195.75;5045861;28;20213;-79
2023/10/28 07:12:01;;;;;;;10.83;10.03;;;;;;;17.40;86.27;92193.63;5044678;28;20186;-82
2023/10/28 07:14:26;;;;;;;11.40;10.30;;;;;;;17.39;85.14;92155.16;5045550;28;20711;-78
2023/10/28 07:16:52;;;;;;;10.70;9.90;;;;;;;17.32;87.89;92202.41;5039352;28;20221;-78
2023/10/28 07:19:17;;;;;;;10.17;9.37;;;;;;;17.41;86.78;92207.59;5044224;28;20254;-78
2023/10/28 07:21:42;;;;;;;12.90;9.53;;;;;;;17.39;86.56;92202.66;5049157;28;20209;-80
2023/10/28 07:24:11;;;;;;;10.80;9.80;;;;;;;17.51;87.15;92213.22;5046476;28;20181;-74
2023/10/28 07:26:37;;;;;;;10.07;9.27;;;;;;;17.86;84.14;92189.78;5045092;28;20884;-86
2023/10/28 07:29:03;;;;;;;12.80;9.77;;;;;;;17.92;83.69;92199.00;5050360;28;20221;-79
2023/10/28 07:31:29;;;;;;;10.73;9.73;;;;;;;17.96;83.90;92199.13;5060284;28;20222;-78
2023/10/28 07:33:56;;;;;;;11.07;10.17;;;;;;;17.67;86.29;92202.00;5041579;28;20212;-78
2023/10/28 07:36:22;;;;;;;12.37;9.37;;;;;;;17.69;85.30;92189.25;5050168;28;20310;-78
2023/10/28 07:38:48;;;;;;;10.00;9.10;;;;;;;18.03;83.44;92204.59;5046454;28;20190;-78
2023/10/28 07:41:14;;;;;;;10.00;8.97;;;;;;;18.02;82.91;92195.94;5047948;28;20270;-80
2023/10/28 07:43:39;;;;;;;11.13;9.23;;;;;;;18.14;82.76;92208.31;5046972;28;20251;-78
2023/10/28 07:46:04;;;;;;;10.37;9.63;;;;;;;17.98;83.28;92204.84;5038017;28;20230;-78
2023/10/28 07:48:30;;;;;;;10.50;9.70;;;;;;;18.18;82.22;92212.59;5046931;28;20188;-77
2023/10/28 07:50:55;;;;;;;9.10;8.27;;;;;;;17.86;84.43;92220.69;5049753;28;20221;-79
2023/10/28 07:53:21;;;;;;;9.93;9.17;;;;;;;17.66;85.69;92226.88;5050406;28;20191;-78
2023/10/28 07:55:47;;;;;;;11.63;10.00;;;;;;;18.06;84.03;92233.78;5060437;28;20278;-78
2023/10/28 07:58:12;;;;;;;10.50;9.50;;;;;;;18.31;81.71;92221.28;5063913;28;20183;-77
2023/10/28 08:00:37;;;;;;;10.40;9.47;;;;;;;18.33;82.25;92224.34;5065889;28;20227;-78
2023/10/28 08:03:03;;;;;;;11.93;9.40;;;;;;;18.23;82.70;92216.88;5070214;28;20178;-78
2023/10/28 08:05:29;;;;;;;10.83;9.90;;;;;;;18.44;82.24;92236.03;5069576;28;20715;-79
2023/10/28 08:07:55;;;;;;;10.40;9.50;;;;;;;18.74;80.32;92245.19;5070039;28;20197;-78
2023/10/28 08:10:24;;;;;;;11.30;10.20;;;;;;;18.79;79.93;92231.72;5069157;28;20310;-79
2023/10/28 08:12:53;;;;;;;10.53;9.47;;;;;;;18.77;80.78;92233.94;5059147;28;20193;-79
2023/10/28 08:15:23;;;;;;;13.30;10.13;;;;;;;18.59;80.16;92212.28;5069632;28;20298;-79
2023/10/28 08:17:50;;;;;;;10.50;9.60;;;;;;;18.83;79.74;92232.59;5059742;28;20269;-78
2023/10/28 08:20:17;;;;;;;16.30;10.80;;;;;;;18.75;79.98;92229.00;5066506;28;20219;-78
2023/10/28 08:22:44;;;;;;;10.83;9.83;;;;;;;18.84;79.42;92236.75;5069945;28;20182;-79
2023/10/28 08:25:11;;;;;;;9.90;9.00;;;;;;;19.07;78.15;92227.94;5069186;28;20310;-78
2023/10/28 08:27:37;;;;;;;10.57;8.90;;;;;;;19.14;77.17;92244.00;5068309;28;20182;-78
2023/10/28 08:30:03;;;;;;;10.27;9.33;;;;;;;19.13;76.78;92236.38;5064415;28;20209;-79
2023/10/28 08:32:30;;;;;;;12.93;10.20;;;;;;;19.33;77.06;92251.28;5069678;28;20182;-79
2023/10/28 08:34:56;;;;;;;15.03;9.10;;;;;;;19.30;75.41;92241.38;5079474;28;20252;-78
2023/10/28 08:37:23;;;;;;;10.03;9.07;;;;;;;19.28;76.37;92248.94;5069707;28;20183;-79
2023/10/28 08:39:48;;;;;;;9.73;9.07;;;;;;;19.29;76.06;92258.41;5069011;28;20218;-79
2023/10/28 08:42:14;;;;;;;12.10;8.97;;;;;;;19.46;74.98;92260.72;5085402;28;20244;-78
2023/10/28 08:44:42;;;;;;;10.07;9.07;;;;;;;19.69;74.54;92263.56;5068783;28;20185;-79
2023/10/28 08:47:08;;;;;;;9.60;8.90;;;;;;;19.73;73.44;92275.00;5069240;28;20178;-79
2023/10/28 08:49:38;;;;;;;8.97;8.33;;;;;;;19.26;75.59;92266.97;5065915;28;20199;-78
2023/10/28 08:52:06;;;;;;;14.97;9.37;;;;;;;19.51;73.19;92257.81;5069232;28;20179;-78
2023/10/28 08:54:34;;;;;;;9.70;8.90;;;;;;;19.59;73.86;92262.19;5067931;28;20860;-78
2023/10/28 08:57:00;;;;;;;10.00;9.23;;;;;;;19.70;73.73;92265.09;5069498;28;20179;-78
2023/10/28 08:59:27;;;;;;;9.80;8.90;;;;;;;19.81;72.28;92266.88;5067417;28;20260;-78
2023/10/28 09:01:52;;;;;;;9.93;9.00;;;;;;;19.62;72.23;92258.84;5048563;28;20196;-78
2023/10/28 09:04:21;;;;;;;10.13;9.10;;;;;;;19.48;73.84;92266.44;5049220;28;20187;-78
2023/10/28 09:06:48;;;;;;;10.43;9.37;;;;;;;19.70;73.73;92255.28;5048610;28;20220;-79
2023/10/28 09:09:16;;;;;;;11.13;10.00;;;;;;;19.88;72.30;92267.03;5049175;28;20184;-82
2023/10/28 09:11:42;;;;;;;9.73;8.93;;;;;;;19.87;73.06;92265.50;5037460;28;20230;-79
2023/10/28 09:14:07;;;;;;;9.10;8.30;;;;;;;19.75;72.87;92257.63;5053999;28;20223;-78
2023/10/28 09:16:36;;;;;;;9.90;9.00;;;;;;;19.81;73.00;92282.78;5037204;28;20229;-79
2023/10/28 09:19:03;;;;;;;9.77;8.93;;;;;;;19.99;71.85;92281.31;5045816;28;20220;-77
2023/10/28 09:21:29;;;;;;;11.70;8.47;;;;;;;20.02;71.35;92271.88;5041188;28;20216;-80
2023/10/28 09:24:00;;;;;;;9.37;8.77;;;;;;;20.01;71.37;92267.72;5042630;28;20193;-79
2023/10/28 09:26:25;;;;;;;9.00;8.30;;;;;;;20.06;70.85;92257.59;5060070;28;20214;-79
2023/10/28 09:28:50;;;;;;;8.97;8.27;;;;;;;20.12;70.71;92264.19;5069205;28;20191;-79
2023/10/28 09:31:25;;;;;;;9.67;8.97;;;;;;;20.36;68.38;92264.00;5068733;28;20232;-79
2023/10/28 09:33:51;;;;;;;9.03;8.13;;;;;;;20.42;67.84;92264.50;5066876;28;20192;-79
2023/10/28 09:36:17;;;;;;;11.30;8.47;;;;;;;20.40;66.77;92259.56;5067692;28;20284;-79
2023/10/28 09:38:45;;;;;;;9.90;8.83;;;;;;;20.42;67.25;92254.66;5063523;28;20774;-78
2023/10/28 09:41:11;;;;;;;14.77;8.40;;;;;;;20.58;66.90;92258.03;5068506;28;20224;-78
2023/10/28 09:43:38;;;;;;;9.83;7.43;;;;;;;20.54;65.71;92251.91;5070269;28;20190;-77
2023/10/28 09:46:05;;;;;;;8.53;7.67;;;;;;;20.59;65.71;92251.59;5068258;28;20230;-77
2023/10/28 09:48:45;;;;;;;8.37;7.70;;;;;;;20.63;64.50;92255.09;5068786;28;20177;-78
2023/10/28 09:51:18;;;;;;;8.17;7.63;;;;;;;20.76;63.11;92255.75;5061366;28;20223;-78
2023/10/28 09:53:49;;;;;;;8.53;7.83;;;;;;;20.79;62.39;92243.66;5069195;28;20181;-79
2023/10/28 09:56:15;;;;;;;8.27;7.77;;;;;;;20.98;60.98;92255.03;5068130;28;20231;-78
2023/10/28 09:58:56;;;;;;;10.47;8.23;;;;;;;21.09;61.03;92250.69;5057809;28;20190;-79
2023/10/28 10:01:48;;;;;;;12.57;8.20;;;;;;;20.99;61.41;92251.28;5067769;28;20224;-78
2023/10/28 10:04:29;;;;;;;8.73;7.82;;;;;;;21.25;59.09;92253.28;5065085;28;20333;-79
2023/10/28 10:06:54;;;;;;;10.73;8.02;;;;;;;20.96;59.29;92244.03;5045516;28;20218;-79
2023/10/28 10:09:19;;;;;;;9.43;8.50;;;;;;;21.05;57.51;92254.41;5057359;28;20192;-79
2023/10/28 10:11:45;;;;;;;8.30;7.55;;;;;;;21.23;55.95;92234.28;5072345;28;20246;-78
2023/10/28 10:14:12;;;;;;;7.68;7.00;;;;;;;21.34;55.92;92235.25;5074399;28;20240;-79
2023/10/28 10:16:38;;;;;;;9.00;7.90;;;;;;;21.36;55.30;92240.94;5071706;28;20214;-78
2023/10/28 10:19:10;;;;;;;8.73;8.02;;;;;;;21.08;54.42;92240.44;5072046;28;20191;-78
2023/10/28 10:21:36;;;;;;;9.07;7.80;;;;;;;21.48;53.57;92238.16;5080898;28;20288;-78
2023/10/28 10:24:04;;;;;;;8.25;7.70;;;;;;;21.74;50.60;92228.31;5072166;28;20228;-78
2023/10/28 10:26:34;;;;;;;8.07;7.60;;;;;;;21.83;51.05;92220.13;5068888;28;20219;-78
2023/10/28 10:29:03;;;;;;;8.30;7.55;;;;;;;21.81;50.30;92227.69;5071359;28;20190;-78
2023/10/28 10:31:31;;;;;;;7.97;7.38;;;;;;;21.73;49.91;92228.66;5071453;28;20216;-76
2023/10/28 10:34:08;;;;;;;9.07;7.80;;;;;;;21.68;51.34;92232.38;5071633;28;20183;-77
2023/10/28 10:36:43;;;;;;;8.25;7.75;;;;;;;21.96;49.17;92221.50;5071203;28;20231;-80
2023/10/28 10:39:16;;;;;;;9.90;7.90;;;;;;;22.13;48.30;92223.63;5071657;28;20181;-79
2023/10/28 10:41:43;;;;;;;8.73;7.97;;;;;;;21.94;47.95;92231.69;5071263;28;20224;-79
2023/10/28 10:44:28;;;;;;;7.60;7.00;;;;;;;21.83;45.67;92239.53;5063119;28;20253;-79
2023/10/28 10:46:56;;;;;;;8.67;7.90;;;;;;;22.13;45.53;92226.28;5064716;28;20211;-77
2023/10/28 10:49:21;;;;;;;7.75;7.13;;;;;;;22.05;44.85;92184.78;5080045;28;20182;-76
2023/10/28 10:51:47;;;;;;;8.05;7.40;;;;;;;22.09;45.75;92223.56;5071348;28;20280;-79
2023/10/28 10:54:16;;;;;;;7.45;6.80;;;;;;;22.09;46.06;92228.13;5060818;28;20220;-79
2023/10/28 10:56:42;;;;;;;8.40;7.80;;;;;;;22.01;45.79;92223.81;5069823;28;20220;-77
2023/10/28 10:59:07;;;;;;;9.48;8.60;;;;;;;21.81;46.73;92209.09;5056899;28;20187;-78
2023/10/28 11:01:32;;;;;;;7.90;7.00;;;;;;;22.18;44.99;92216.09;5074436;28;20228;-79
2023/10/28 11:03:58;;;;;;;8.05;7.50;;;;;;;22.13;47.00;92232.34;5061018;28;20170;-78
2023/10/28 11:06:26;;;;;;;8.30;7.40;;;;;;;22.17;45.59;92197.84;5065245;28;20212;-78
2023/10/28 11:08:52;;;;;;;8.38;7.78;;;;;;;22.30;44.90;92222.34;5064539;28;20217;-78
2023/10/28 11:11:18;;;;;;;9.23;7.80;;;;;;;21.91;46.10;92232.41;5068293;28;20276;-78
2023/10/28 11:13:44;;;;;;;8.57;7.97;;;;;;;22.31;45.26;92240.59;5064891;28;20271;-77
2023/10/28 11:16:26;;;;;;;8.00;7.53;;;;;;;22.64;43.65;92232.72;5066200;28;20222;-81
2023/10/28 11:18:52;;;;;;;8.32;7.60;;;;;;;22.64;44.45;92231.94;5061932;28;20264;-78
2023/10/28 11:21:22;;;;;;;7.45;7.05;;;;;;;22.65;44.24;92234.25;5061466;28;20222;-78
2023/10/28 11:23:47;;;;;;;8.65;7.82;;;;;;;22.36;44.82;92242.19;5063788;28;20190;-79
2023/10/28 11:26:18;;;;;;;8.05;7.45;;;;;;;21.94;44.95;92221.06;5070569;28;20285;-79